sensor_id;sensor_type;location;lat;lon;timestamp;temperature;humidity
68648;SHT31;55632;51.962;16.116;2023-02-27T00:00:33;0.00;78.81
68648;SHT31;55632;51.962;16.116;2023-02-27T00:05:34;0.00;78.75
68648;SHT31;55632;51.962;16.116;2023-02-27T00:10:35;0.00;78.77
68648;SHT31;55632;51.962;16.116;2023-02-27T00:15:36;-0.02;78.71
68648;SHT31;55632;51.962;16.116;2023-02-27T00:20:37;-0.02;78.65
68648;SHT31;55632;51.962;16.116;2023-02-27T00:25:38;-0.03;78.64
68648;SHT31;55632;51.962;16.116;2023-02-27T00:30:39;-0.03;78.62
68648;SHT31;55632;51.962;16.116;2023-02-27T00:35:40;-0.05;78.59
68648;SHT31;55632;51.962;16.116;2023-02-27T00:40:41;-0.03;78.62
68648;SHT31;55632;51.962;16.116;2023-02-27T00:45:41;-0.05;78.48
68648;SHT31;55632;51.962;16.116;2023-02-27T00:50:45;-0.05;78.46
68648;SHT31;55632;51.962;16.116;2023-02-27T00:55:46;-0.05;78.47
68648;SHT31;55632;51.962;16.116;2023-02-27T01:00:47;-0.06;78.40
68648;SHT31;55632;51.962;16.116;2023-02-27T01:05:47;-0.07;78.34
68648;SHT31;55632;51.962;16.116;2023-02-27T01:10:53;-0.10;78.30
68648;SHT31;55632;51.962;16.116;2023-02-27T01:15:54;-0.13;78.20
68648;SHT31;55632;51.962;16.116;2023-02-27T01:20:57;-0.17;78.21
68648;SHT31;55632;51.962;16.116;2023-02-27T01:25:58;-0.20;78.07
68648;SHT31;55632;51.962;16.116;2023-02-27T01:31:00;-0.24;78.08
68648;SHT31;55632;51.962;16.116;2023-02-27T01:36:02;-0.30;78.11
68648;SHT31;55632;51.962;16.116;2023-02-27T01:41:03;-0.35;78.08
68648;SHT31;55632;51.962;16.116;2023-02-27T01:46:06;-0.42;78.11
68648;SHT31;55632;51.962;16.116;2023-02-27T01:51:12;-0.52;78.16
68648;SHT31;55632;51.962;16.116;2023-02-27T01:56:24;-0.57;78.21
68648;SHT31;55632;51.962;16.116;2023-02-27T02:01:26;-0.64;78.24
68648;SHT31;55632;51.962;16.116;2023-02-27T02:06:29;-0.69;78.36
68648;SHT31;55632;51.962;16.116;2023-02-27T02:11:32;-0.76;78.40
68648;SHT31;55632;51.962;16.116;2023-02-27T02:16:44;-0.83;78.50
68648;SHT31;55632;51.962;16.116;2023-02-27T02:22:03;-0.93;78.60
68648;SHT31;55632;51.962;16.116;2023-02-27T02:32:50;-1.03;78.89
68648;SHT31;55632;51.962;16.116;2023-02-27T02:43:30;-1.04;79.25
68648;SHT31;55632;51.962;16.116;2023-02-27T02:48:52;-0.99;79.40
68648;SHT31;55632;51.962;16.116;2023-02-27T03:04:37;-0.97;79.63
68648;SHT31;55632;51.962;16.116;2023-02-27T03:10:14;-0.94;79.76
68648;SHT31;55632;51.962;16.116;2023-02-27T03:15:23;-0.89;79.94
68648;SHT31;55632;51.962;16.116;2023-02-27T03:20:34;-0.87;79.95
68648;SHT31;55632;51.962;16.116;2023-02-27T03:25:36;-0.92;79.88
68648;SHT31;55632;51.962;16.116;2023-02-27T03:31:04;-0.90;79.83
68648;SHT31;55632;51.962;16.116;2023-02-27T03:41:30;-0.89;79.99
68648;SHT31;55632;51.962;16.116;2023-02-27T03:46:52;-0.89;80.02
68648;SHT31;55632;51.962;16.116;2023-02-27T03:51:53;-0.85;80.12
68648;SHT31;55632;51.962;16.116;2023-02-27T03:57:01;-0.80;80.21
68648;SHT31;55632;51.962;16.116;2023-02-27T04:02:02;-0.80;80.15
68648;SHT31;55632;51.962;16.116;2023-02-27T04:17:55;-0.66;80.25
68648;SHT31;55632;51.962;16.116;2023-02-27T04:23:12;-0.62;80.35
68648;SHT31;55632;51.962;16.116;2023-02-27T04:34:04;-0.55;80.36
68648;SHT31;55632;51.962;16.116;2023-02-27T04:39:14;-0.52;80.42
68648;SHT31;55632;51.962;16.116;2023-02-27T04:44:19;-0.54;80.42
68648;SHT31;55632;51.962;16.116;2023-02-27T04:54:32;-0.57;80.46
68648;SHT31;55632;51.962;16.116;2023-02-27T04:59:41;-0.54;80.56
68648;SHT31;55632;51.962;16.116;2023-02-27T05:04:44;-0.54;80.61
68648;SHT31;55632;51.962;16.116;2023-02-27T05:15:01;-0.54;80.76
68648;SHT31;55632;51.962;16.116;2023-02-27T05:20:09;-0.51;80.82
68648;SHT31;55632;51.962;16.116;2023-02-27T05:30:35;-0.47;80.97
68648;SHT31;55632;51.962;16.116;2023-02-27T05:35:49;-0.51;81.05
68648;SHT31;55632;51.962;16.116;2023-02-27T05:40:56;-0.51;81.13
68648;SHT31;55632;51.962;16.116;2023-02-27T05:46:05;-0.51;81.26
68648;SHT31;55632;51.962;16.116;2023-02-27T05:51:10;-0.48;81.36
68648;SHT31;55632;51.962;16.116;2023-02-27T05:56:15;-0.47;81.46
68648;SHT31;55632;51.962;16.116;2023-02-27T06:01:18;-0.45;81.54
68648;SHT31;55632;51.962;16.116;2023-02-27T06:06:19;-0.45;81.62
68648;SHT31;55632;51.962;16.116;2023-02-27T06:11:22;-0.42;81.68
68648;SHT31;55632;51.962;16.116;2023-02-27T06:16:26;-0.40;81.79
68648;SHT31;55632;51.962;16.116;2023-02-27T06:21:26;-0.35;81.95
68648;SHT31;55632;51.962;16.116;2023-02-27T06:26:27;-0.30;81.89
68648;SHT31;55632;51.962;16.116;2023-02-27T06:31:28;-0.27;81.97
68648;SHT31;55632;51.962;16.116;2023-02-27T06:36:29;-0.24;82.00
68648;SHT31;55632;51.962;16.116;2023-02-27T06:41:31;-0.23;82.05
68648;SHT31;55632;51.962;16.116;2023-02-27T06:46:32;-0.16;82.19
68648;SHT31;55632;51.962;16.116;2023-02-27T06:51:36;-0.07;82.21
68648;SHT31;55632;51.962;16.116;2023-02-27T06:56:37;-0.02;82.17
68648;SHT31;55632;51.962;16.116;2023-02-27T07:01:38;0.02;82.22
68648;SHT31;55632;51.962;16.116;2023-02-27T07:06:43;0.11;82.17
68648;SHT31;55632;51.962;16.116;2023-02-27T07:11:44;0.14;82.19
68648;SHT31;55632;51.962;16.116;2023-02-27T07:16:48;0.19;82.20
68648;SHT31;55632;51.962;16.116;2023-02-27T07:21:55;0.25;82.26
68648;SHT31;55632;51.962;16.116;2023-02-27T07:26:56;0.30;82.34
68648;SHT31;55632;51.962;16.116;2023-02-27T07:31:57;0.36;82.39
68648;SHT31;55632;51.962;16.116;2023-02-27T07:36:58;0.45;82.36
68648;SHT31;55632;51.962;16.116;2023-02-27T07:41:59;0.50;82.33
68648;SHT31;55632;51.962;16.116;2023-02-27T07:47:00;0.55;82.32
68648;SHT31;55632;51.962;16.116;2023-02-27T07:52:06;0.63;82.34
68648;SHT31;55632;51.962;16.116;2023-02-27T07:57:10;0.64;82.32
68648;SHT31;55632;51.962;16.116;2023-02-27T08:02:12;0.76;82.41
68648;SHT31;55632;51.962;16.116;2023-02-27T08:07:13;0.87;82.41
68648;SHT31;55632;51.962;16.116;2023-02-27T08:12:13;0.95;82.24
68648;SHT31;55632;51.962;16.116;2023-02-27T08:17:14;1.01;82.23
68648;SHT31;55632;51.962;16.116;2023-02-27T08:22:18;1.11;82.32
68648;SHT31;55632;51.962;16.116;2023-02-27T08:27:19;1.19;81.88
68648;SHT31;55632;51.962;16.116;2023-02-27T08:32:19;1.21;81.73
68648;SHT31;55632;51.962;16.116;2023-02-27T08:37:23;1.22;81.77
68648;SHT31;55632;51.962;16.116;2023-02-27T08:42:27;1.25;81.75
68648;SHT31;55632;51.962;16.116;2023-02-27T08:47:28;1.31;81.48
68648;SHT31;55632;51.962;16.116;2023-02-27T08:52:32;1.39;81.55
68648;SHT31;55632;51.962;16.116;2023-02-27T08:57:33;1.44;81.33
68648;SHT31;55632;51.962;16.116;2023-02-27T09:02:34;1.54;81.35
68648;SHT31;55632;51.962;16.116;2023-02-27T09:07:35;1.66;81.29
68648;SHT31;55632;51.962;16.116;2023-02-27T09:12:35;1.79;80.69
68648;SHT31;55632;51.962;16.116;2023-02-27T09:17:37;1.85;80.49
68648;SHT31;55632;51.962;16.116;2023-02-27T09:22:37;1.89;80.30
68648;SHT31;55632;51.962;16.116;2023-02-27T09:27:41;2.04;80.32
68648;SHT31;55632;51.962;16.116;2023-02-27T09:32:42;2.18;80.11
68648;SHT31;55632;51.962;16.116;2023-02-27T09:37:43;2.26;79.51
68648;SHT31;55632;51.962;16.116;2023-02-27T09:42:43;2.37;79.68
68648;SHT31;55632;51.962;16.116;2023-02-27T09:47:53;2.50;79.37
68648;SHT31;55632;51.962;16.116;2023-02-27T09:52:55;2.62;78.90
68648;SHT31;55632;51.962;16.116;2023-02-27T10:03:46;2.87;78.12
68648;SHT31;55632;51.962;16.116;2023-02-27T10:14:14;3.05;77.54
68648;SHT31;55632;51.962;16.116;2023-02-27T10:19:25;3.15;77.11
68648;SHT31;55632;51.962;16.116;2023-02-27T10:29:33;3.34;76.62
68648;SHT31;55632;51.962;16.116;2023-02-27T10:34:40;3.45;75.73
68648;SHT31;55632;51.962;16.116;2023-02-27T10:39:52;3.55;75.60
68648;SHT31;55632;51.962;16.116;2023-02-27T10:44:53;3.62;74.06
68648;SHT31;55632;51.962;16.116;2023-02-27T10:49:55;3.67;73.36
68648;SHT31;55632;51.962;16.116;2023-02-27T10:55:16;3.62;72.31
68648;SHT31;55632;51.962;16.116;2023-02-27T11:05:39;3.79;71.96
68648;SHT31;55632;51.962;16.116;2023-02-27T11:10:59;3.96;71.13
68648;SHT31;55632;51.962;16.116;2023-02-27T11:16:14;4.11;70.31
68648;SHT31;55632;51.962;16.116;2023-02-27T11:21:16;4.30;69.10
68648;SHT31;55632;51.962;16.116;2023-02-27T11:26:26;4.42;68.30
68648;SHT31;55632;51.962;16.116;2023-02-27T11:31:27;4.40;66.00
68648;SHT31;55632;51.962;16.116;2023-02-27T11:36:42;4.33;64.68
68648;SHT31;55632;51.962;16.116;2023-02-27T11:41:43;4.27;64.92
68648;SHT31;55632;51.962;16.116;2023-02-27T11:46:44;4.21;63.09
68648;SHT31;55632;51.962;16.116;2023-02-27T11:57:45;4.17;63.86
68648;SHT31;55632;51.962;16.116;2023-02-27T12:08:17;4.17;62.67
68648;SHT31;55632;51.962;16.116;2023-02-27T12:13:29;4.16;61.53
68648;SHT31;55632;51.962;16.116;2023-02-27T12:18:51;4.16;60.82
68648;SHT31;55632;51.962;16.116;2023-02-27T12:23:58;4.21;60.98
68648;SHT31;55632;51.962;16.116;2023-02-27T12:29:12;4.25;60.35
68648;SHT31;55632;51.962;16.116;2023-02-27T12:34:25;4.25;60.20
68648;SHT31;55632;51.962;16.116;2023-02-27T12:39:28;4.31;59.73
68648;SHT31;55632;51.962;16.116;2023-02-27T12:44:38;4.33;59.44
68648;SHT31;55632;51.962;16.116;2023-02-27T12:50:04;4.33;59.32
68648;SHT31;55632;51.962;16.116;2023-02-27T13:00:23;4.06;60.03
68648;SHT31;55632;51.962;16.116;2023-02-27T13:10:56;4.05;61.04
68648;SHT31;55632;51.962;16.116;2023-02-27T13:16:10;4.02;60.58
68648;SHT31;55632;51.962;16.116;2023-02-27T13:21:33;4.00;60.58
68648;SHT31;55632;51.962;16.116;2023-02-27T13:26:50;4.05;60.31
68648;SHT31;55632;51.962;16.116;2023-02-27T13:31:58;4.06;60.06
68648;SHT31;55632;51.962;16.116;2023-02-27T13:37:02;4.05;59.45
68648;SHT31;55632;51.962;16.116;2023-02-27T13:52:36;4.06;58.93
68648;SHT31;55632;51.962;16.116;2023-02-27T13:57:45;4.07;59.30
68648;SHT31;55632;51.962;16.116;2023-02-27T14:02:58;4.05;58.67
68648;SHT31;55632;51.962;16.116;2023-02-27T14:18:50;3.88;57.85
68648;SHT31;55632;51.962;16.116;2023-02-27T14:23:52;3.81;57.84
68648;SHT31;55632;51.962;16.116;2023-02-27T14:28:54;3.78;58.43
68648;SHT31;55632;51.962;16.116;2023-02-27T14:33:56;3.77;58.64
68648;SHT31;55632;51.962;16.116;2023-02-27T14:39:01;3.75;58.87
68648;SHT31;55632;51.962;16.116;2023-02-27T14:44:36;3.72;58.91
68648;SHT31;55632;51.962;16.116;2023-02-27T14:49:41;3.72;58.58
68648;SHT31;55632;51.962;16.116;2023-02-27T14:54:42;3.72;59.13
68648;SHT31;55632;51.962;16.116;2023-02-27T14:59:46;3.74;58.80
68648;SHT31;55632;51.962;16.116;2023-02-27T15:04:53;3.74;59.00
68648;SHT31;55632;51.962;16.116;2023-02-27T15:09:59;3.69;59.09
68648;SHT31;55632;51.962;16.116;2023-02-27T15:15:02;3.68;59.16
68648;SHT31;55632;51.962;16.116;2023-02-27T15:20:34;3.60;59.29
68648;SHT31;55632;51.962;16.116;2023-02-27T15:25:38;3.54;59.92
68648;SHT31;55632;51.962;16.116;2023-02-27T15:30:39;3.53;60.34
68648;SHT31;55632;51.962;16.116;2023-02-27T15:35:40;3.51;60.45
68648;SHT31;55632;51.962;16.116;2023-02-27T15:40:42;3.47;60.79
68648;SHT31;55632;51.962;16.116;2023-02-27T15:45:43;3.43;60.96
68648;SHT31;55632;51.962;16.116;2023-02-27T15:50:47;3.43;61.39
68648;SHT31;55632;51.962;16.116;2023-02-27T15:55:55;3.40;61.70
68648;SHT31;55632;51.962;16.116;2023-02-27T16:01:02;3.33;61.96
68648;SHT31;55632;51.962;16.116;2023-02-27T16:06:34;3.27;62.53
68648;SHT31;55632;51.962;16.116;2023-02-27T16:11:36;3.17;62.94
68648;SHT31;55632;51.962;16.116;2023-02-27T16:16:36;3.13;63.42
68648;SHT31;55632;51.962;16.116;2023-02-27T16:21:38;3.09;63.54
68648;SHT31;55632;51.962;16.116;2023-02-27T16:26:39;3.03;63.58
68648;SHT31;55632;51.962;16.116;2023-02-27T16:31:45;3.03;63.85
68648;SHT31;55632;51.962;16.116;2023-02-27T16:36:55;3.02;64.06
68648;SHT31;55632;51.962;16.116;2023-02-27T16:41:58;3.00;64.08
68648;SHT31;55632;51.962;16.116;2023-02-27T16:46:59;2.96;64.12
68648;SHT31;55632;51.962;16.116;2023-02-27T16:52:01;2.92;64.44
68648;SHT31;55632;51.962;16.116;2023-02-27T16:57:03;2.88;64.59
68648;SHT31;55632;51.962;16.116;2023-02-27T17:02:05;2.85;64.95
68648;SHT31;55632;51.962;16.116;2023-02-27T17:07:12;2.85;65.37
68648;SHT31;55632;51.962;16.116;2023-02-27T17:12:15;2.84;65.71
68648;SHT31;55632;51.962;16.116;2023-02-27T17:17:21;2.82;66.02
68648;SHT31;55632;51.962;16.116;2023-02-27T17:22:23;2.78;66.27
68648;SHT31;55632;51.962;16.116;2023-02-27T17:27:23;2.73;66.52
68648;SHT31;55632;51.962;16.116;2023-02-27T17:32:24;2.73;66.63
68648;SHT31;55632;51.962;16.116;2023-02-27T17:37:31;2.68;66.84
68648;SHT31;55632;51.962;16.116;2023-02-27T17:42:38;2.67;66.79
68648;SHT31;55632;51.962;16.116;2023-02-27T17:47:39;2.64;66.68
68648;SHT31;55632;51.962;16.116;2023-02-27T17:52:40;2.57;66.85
68648;SHT31;55632;51.962;16.116;2023-02-27T17:57:41;2.53;66.84
68648;SHT31;55632;51.962;16.116;2023-02-27T18:02:43;2.50;66.93
68648;SHT31;55632;51.962;16.116;2023-02-27T18:07:44;2.47;67.14
68648;SHT31;55632;51.962;16.116;2023-02-27T18:12:45;2.43;67.20
68648;SHT31;55632;51.962;16.116;2023-02-27T18:17:46;2.36;67.45
68648;SHT31;55632;51.962;16.116;2023-02-27T18:22:53;2.32;67.86
68648;SHT31;55632;51.962;16.116;2023-02-27T18:27:55;2.26;68.07
68648;SHT31;55632;51.962;16.116;2023-02-27T18:32:57;2.20;68.37
68648;SHT31;55632;51.962;16.116;2023-02-27T18:37:58;2.15;68.61
68648;SHT31;55632;51.962;16.116;2023-02-27T18:42:59;2.11;68.93
68648;SHT31;55632;51.962;16.116;2023-02-27T18:47:59;2.02;69.05
68648;SHT31;55632;51.962;16.116;2023-02-27T18:53:00;2.02;69.20
68648;SHT31;55632;51.962;16.116;2023-02-27T18:58:01;1.95;69.23
68648;SHT31;55632;51.962;16.116;2023-02-27T19:03:03;1.85;69.47
68648;SHT31;55632;51.962;16.116;2023-02-27T19:08:05;1.85;69.66
68648;SHT31;55632;51.962;16.116;2023-02-27T19:13:05;1.81;69.93
68648;SHT31;55632;51.962;16.116;2023-02-27T19:18:08;1.77;69.89
68648;SHT31;55632;51.962;16.116;2023-02-27T19:23:10;1.75;70.16
68648;SHT31;55632;51.962;16.116;2023-02-27T19:28:11;1.71;70.38
68648;SHT31;55632;51.962;16.116;2023-02-27T19:33:11;1.63;70.78
68648;SHT31;55632;51.962;16.116;2023-02-27T19:38:12;1.63;70.83
68648;SHT31;55632;51.962;16.116;2023-02-27T19:43:13;1.60;71.12
68648;SHT31;55632;51.962;16.116;2023-02-27T19:48:15;1.60;71.42
68648;SHT31;55632;51.962;16.116;2023-02-27T19:53:19;1.60;71.72
68648;SHT31;55632;51.962;16.116;2023-02-27T19:58:20;1.61;71.85
68648;SHT31;55632;51.962;16.116;2023-02-27T20:03:25;1.60;71.94
68648;SHT31;55632;51.962;16.116;2023-02-27T20:08:26;1.57;71.98
68648;SHT31;55632;51.962;16.116;2023-02-27T20:13:26;1.54;72.14
68648;SHT31;55632;51.962;16.116;2023-02-27T20:18:33;1.53;72.09
68648;SHT31;55632;51.962;16.116;2023-02-27T20:23:37;1.47;72.19
68648;SHT31;55632;51.962;16.116;2023-02-27T20:28:38;1.47;72.38
68648;SHT31;55632;51.962;16.116;2023-02-27T20:33:40;1.47;72.43
68648;SHT31;55632;51.962;16.116;2023-02-27T20:38:41;1.44;72.48
68648;SHT31;55632;51.962;16.116;2023-02-27T20:43:43;1.42;72.67
68648;SHT31;55632;51.962;16.116;2023-02-27T20:48:44;1.42;72.72
68648;SHT31;55632;51.962;16.116;2023-02-27T20:53:48;1.46;73.15
68648;SHT31;55632;51.962;16.116;2023-02-27T20:58:52;1.47;73.46
68648;SHT31;55632;51.962;16.116;2023-02-27T21:03:56;1.50;73.63
68648;SHT31;55632;51.962;16.116;2023-02-27T21:09:01;1.49;73.82
68648;SHT31;55632;51.962;16.116;2023-02-27T21:14:05;1.47;74.00
68648;SHT31;55632;51.962;16.116;2023-02-27T21:19:07;1.44;74.19
68648;SHT31;55632;51.962;16.116;2023-02-27T21:24:09;1.42;74.09
68648;SHT31;55632;51.962;16.116;2023-02-27T21:29:16;1.39;74.15
68648;SHT31;55632;51.962;16.116;2023-02-27T21:34:20;1.43;74.22
68648;SHT31;55632;51.962;16.116;2023-02-27T21:39:26;1.42;74.42
68648;SHT31;55632;51.962;16.116;2023-02-27T21:44:27;1.46;74.60
68648;SHT31;55632;51.962;16.116;2023-02-27T21:49:35;1.44;74.80
68648;SHT31;55632;51.962;16.116;2023-02-27T21:54:40;1.43;74.95
68648;SHT31;55632;51.962;16.116;2023-02-27T21:59:41;1.40;75.00
68648;SHT31;55632;51.962;16.116;2023-02-27T22:04:45;1.36;75.20
68648;SHT31;55632;51.962;16.116;2023-02-27T22:09:53;1.32;75.17
68648;SHT31;55632;51.962;16.116;2023-02-27T22:14:55;1.28;75.14
68648;SHT31;55632;51.962;16.116;2023-02-27T22:19:56;1.31;75.23
68648;SHT31;55632;51.962;16.116;2023-02-27T22:24:57;1.26;75.36
68648;SHT31;55632;51.962;16.116;2023-02-27T22:30:00;1.21;75.28
68648;SHT31;55632;51.962;16.116;2023-02-27T22:35:12;1.19;75.46
68648;SHT31;55632;51.962;16.116;2023-02-27T22:40:14;1.19;75.46
68648;SHT31;55632;51.962;16.116;2023-02-27T22:45:17;1.19;75.59
68648;SHT31;55632;51.962;16.116;2023-02-27T22:50:18;1.19;75.53
68648;SHT31;55632;51.962;16.116;2023-02-27T22:55:21;1.19;75.39
68648;SHT31;55632;51.962;16.116;2023-02-27T23:00:23;1.16;75.41
68648;SHT31;55632;51.962;16.116;2023-02-27T23:05:24;1.19;75.43
68648;SHT31;55632;51.962;16.116;2023-02-27T23:10:25;1.18;75.56
68648;SHT31;55632;51.962;16.116;2023-02-27T23:15:26;1.22;75.60
68648;SHT31;55632;51.962;16.116;2023-02-27T23:20:28;1.24;75.68
68648;SHT31;55632;51.962;16.116;2023-02-27T23:25:30;1.22;75.90
68648;SHT31;55632;51.962;16.116;2023-02-27T23:30:32;1.21;76.13
68648;SHT31;55632;51.962;16.116;2023-02-27T23:35:33;1.22;76.22
68648;SHT31;55632;51.962;16.116;2023-02-27T23:40:34;1.24;76.35
68648;SHT31;55632;51.962;16.116;2023-02-27T23:45:35;1.18;76.49
68648;SHT31;55632;51.962;16.116;2023-02-27T23:50:41;1.16;76.46
68648;SHT31;55632;51.962;16.116;2023-02-27T23:55:45;1.12;76.54
